createdAt,value
2019-05-02T08:22:13.010Z,100.00
2019-05-02T08:24:40.521Z,100.00
2019-05-02T08:27:39.379Z,100.00
2019-05-02T08:30:20.243Z,100.00
2019-05-02T08:32:53.814Z,100.00
2019-05-02T08:35:28.327Z,100.00
2019-05-02T08:38:02.704Z,100.00
2019-05-02T08:40:36.380Z,100.00
2019-05-02T08:43:10.953Z,100.00
2019-05-02T08:45:44.265Z,100.00
2019-05-02T08:48:17.721Z,100.00
2019-05-02T08:50:51.062Z,100.00
2019-05-02T08:53:24.302Z,100.00
2019-05-02T08:55:57.800Z,100.00
2019-05-02T08:58:31.324Z,100.00
2019-05-02T09:01:04.462Z,100.00
2019-05-02T09:03:54.772Z,100.00
2019-05-02T09:06:17.061Z,100.00
2019-05-02T09:08:51.271Z,100.00
2019-05-02T09:11:24.167Z,100.00
2019-05-02T09:13:57.963Z,100.00
2019-05-02T09:16:32.805Z,100.00
2019-05-02T09:19:06.359Z,100.00
2019-05-02T09:21:42.913Z,100.00
2019-05-02T09:24:21.111Z,100.00
2019-05-02T09:26:51.980Z,100.00
2019-05-02T09:29:25.583Z,100.00
2019-05-02T09:31:58.675Z,100.00
2019-05-02T09:34:32.020Z,100.00
2019-05-02T09:37:05.476Z,100.00
2019-05-02T09:39:38.462Z,100.00
2019-05-02T09:42:15.152Z,96.13
2019-05-02T09:44:52.354Z,94.09
2019-05-02T09:47:27.373Z,96.03
2019-05-02T09:50:14.042Z,92.60
2019-05-02T09:52:48.061Z,100.00
2019-05-02T09:55:22.698Z,100.00
2019-05-02T09:57:56.204Z,97.83
2019-05-02T10:00:44.052Z,95.33
2019-05-02T10:03:17.742Z,94.26
2019-05-02T10:05:52.352Z,92.69
2019-05-02T10:08:25.851Z,88.20
2019-05-02T10:10:59.666Z,79.97
2019-05-02T10:13:33.427Z,79.68
2019-05-02T10:16:06.974Z,84.53
2019-05-02T10:18:42.962Z,82.41
2019-05-02T10:21:17.272Z,77.52
2019-05-02T10:23:51.798Z,79.09
2019-05-02T10:26:26.528Z,85.00
2019-05-02T10:29:02.055Z,86.43
2019-05-02T10:31:37.696Z,80.05
2019-05-02T10:34:16.296Z,73.54
2019-05-02T10:36:54.236Z,66.83
2019-05-02T10:39:23.426Z,72.50
2019-05-02T10:41:57.586Z,77.61
2019-05-02T10:44:32.705Z,76.72
2019-05-02T10:47:06.875Z,77.16
2019-05-02T10:49:48.891Z,75.04
2019-05-02T10:52:29.491Z,73.66
2019-05-02T10:54:57.217Z,76.28
2019-05-02T10:57:32.527Z,75.61
2019-05-02T11:00:08.075Z,73.93
2019-05-02T11:02:58.703Z,74.85
2019-05-02T11:05:31.970Z,79.13
2019-05-02T11:08:06.315Z,78.85
2019-05-02T11:10:42.264Z,68.08
2019-05-02T11:13:42.779Z,73.29
2019-05-02T11:16:42.289Z,73.74
2019-05-02T11:19:33.543Z,69.68
2019-05-02T11:22:06.925Z,72.14
2019-05-02T11:24:41.714Z,69.49
2019-05-02T11:27:15.257Z,65.52
2019-05-02T11:29:48.760Z,60.59
2019-05-02T11:32:22.377Z,66.68
2019-05-02T11:34:55.749Z,66.68
2019-05-02T11:37:28.451Z,60.44
2019-05-02T11:40:05.638Z,60.44
2019-05-02T11:42:38.027Z,61.24
2019-05-02T11:45:12.562Z,66.11
2019-05-02T11:47:45.600Z,60.46
2019-05-02T11:50:18.595Z,58.72
2019-05-02T11:52:53.016Z,64.00
2019-05-02T11:55:29.005Z,64.00
2019-05-02T11:58:07.817Z,62.42
2019-05-02T12:00:39.757Z,57.84
2019-05-02T12:03:21.954Z,61.29
2019-05-02T12:05:54.688Z,61.29
2019-05-02T12:08:28.661Z,60.97
2019-05-02T12:11:03.899Z,60.02
2019-05-02T12:13:37.500Z,60.89
2019-05-02T12:16:15.111Z,65.95
2019-05-02T12:18:48.925Z,61.93
2019-05-02T12:21:23.096Z,66.32
2019-05-02T12:23:59.394Z,62.57
2019-05-02T12:26:32.475Z,63.24
2019-05-02T12:29:06.186Z,62.14
2019-05-02T12:31:39.679Z,62.46
2019-05-02T12:34:13.402Z,62.08
2019-05-02T12:36:46.092Z,60.23
2019-05-02T12:39:19.144Z,57.78
2019-05-02T12:41:53.612Z,62.88
2019-05-02T12:44:27.237Z,65.87
2019-05-02T12:47:02.503Z,60.69
2019-05-02T12:49:35.320Z,61.74
2019-05-02T12:52:08.519Z,55.33
2019-05-02T12:54:42.060Z,58.84
2019-05-02T12:57:15.458Z,55.42
2019-05-02T12:59:48.915Z,58.06
2019-05-02T13:02:33.233Z,58.06
2019-05-02T13:05:08.082Z,56.49
2019-05-02T13:07:42.877Z,56.30
2019-05-02T13:10:25.031Z,61.34
2019-05-02T13:12:59.711Z,62.25
2019-05-02T13:15:39.164Z,63.47
2019-05-02T13:18:37.370Z,64.99
2019-05-02T13:21:17.141Z,70.02
2019-05-02T13:24:07.398Z,70.88
2019-05-02T13:26:42.922Z,74.35
2019-05-02T13:29:22.494Z,74.09
2019-05-02T13:32:14.283Z,73.76
2019-05-02T13:34:57.082Z,74.49
2019-05-02T13:37:39.026Z,71.63
2019-05-02T13:40:23.110Z,69.01
2019-05-02T13:43:01.819Z,68.25
2019-05-02T13:45:55.331Z,70.05
2019-05-02T13:48:33.303Z,72.06
2019-05-02T13:51:14.309Z,73.92
2019-05-02T13:54:02.314Z,73.28
2019-05-02T13:56:48.600Z,72.20
2019-05-02T13:59:22.975Z,72.55
2019-05-02T14:02:05.317Z,73.73
2019-05-02T14:04:38.756Z,73.45
2019-05-02T14:07:17.361Z,73.34
2019-05-02T14:09:57.988Z,72.74
2019-05-02T14:12:55.248Z,71.84
2019-05-02T14:15:34.144Z,72.87
2019-05-02T14:18:08.009Z,72.98
2019-05-02T14:20:43.542Z,73.33
2019-05-02T14:23:18.153Z,74.71
2019-05-02T14:25:52.120Z,94.48
2019-05-02T14:28:26.848Z,100.00
2019-05-02T14:31:02.277Z,100.00
2019-05-02T14:33:37.438Z,100.00
2019-05-02T14:36:13.549Z,100.00
2019-05-02T14:38:47.009Z,100.00
2019-05-02T14:41:29.663Z,100.00
2019-05-02T14:44:02.889Z,100.00
2019-05-02T14:46:39.379Z,100.00
2019-05-02T14:49:16.593Z,100.00
2019-05-02T14:51:48.318Z,100.00
2019-05-02T14:54:22.903Z,100.00
2019-05-02T14:57:02.017Z,100.00
2019-05-02T14:59:35.594Z,100.00
2019-05-02T15:02:13.811Z,100.00
2019-05-02T15:04:48.802Z,100.00
2019-05-02T15:07:26.570Z,100.00
2019-05-02T15:10:02.698Z,100.00
2019-05-02T15:12:33.726Z,100.00
2019-05-02T15:15:12.278Z,100.00
2019-05-02T15:17:46.298Z,100.00
2019-05-02T15:20:22.393Z,100.00
2019-05-02T15:23:02.567Z,100.00
2019-05-02T15:25:35.397Z,100.00
2019-05-02T15:28:13.061Z,100.00
2019-05-02T15:30:49.710Z,100.00
2019-05-02T15:33:25.593Z,100.00
2019-05-02T15:36:07.498Z,100.00
2019-05-02T15:38:45.542Z,100.00
2019-05-02T15:41:15.505Z,100.00
2019-05-02T15:43:49.283Z,100.00
2019-05-02T15:46:23.716Z,100.00
2019-05-02T15:49:01.898Z,100.00
2019-05-02T15:51:38.054Z,100.00
2019-05-02T15:54:09.150Z,100.00
2019-05-02T15:56:59.943Z,100.00
2019-05-02T15:59:44.879Z,100.00
2019-05-02T16:02:17.698Z,100.00
2019-05-02T16:04:52.146Z,100.00
2019-05-02T16:07:25.214Z,100.00
2019-05-02T16:10:01.150Z,100.00
2019-05-02T16:12:36.057Z,100.00
2019-05-02T16:15:18.171Z,100.00
2019-05-02T16:17:46.225Z,100.00
2019-05-02T16:20:40.494Z,100.00
2019-05-02T16:23:19.509Z,100.00
2019-05-02T16:25:52.290Z,100.00
2019-05-02T16:28:25.556Z,100.00
2019-05-02T16:31:02.070Z,100.00
2019-05-02T16:33:37.126Z,100.00
2019-05-02T16:36:12.692Z,100.00
2019-05-02T16:38:46.771Z,100.00
2019-05-02T16:41:21.783Z,100.00
2019-05-02T16:43:56.358Z,100.00
2019-05-02T16:46:32.241Z,100.00
2019-05-02T16:49:08.904Z,100.00
2019-05-02T16:51:43.747Z,100.00
2019-05-02T16:54:16.850Z,100.00
2019-05-02T16:56:51.798Z,100.00
2019-05-02T16:59:26.094Z,100.00
2019-05-02T17:02:07.543Z,100.00
2019-05-02T17:04:34.872Z,100.00
2019-05-02T17:07:12.310Z,100.00
2019-05-02T17:10:08.429Z,100.00
2019-05-02T17:12:42.870Z,100.00
2019-05-02T17:15:31.430Z,100.00
2019-05-02T17:18:05.043Z,100.00
2019-05-02T17:20:39.176Z,100.00
2019-05-02T17:23:12.878Z,100.00
2019-05-02T17:25:46.696Z,100.00
2019-05-02T17:28:22.190Z,100.00
2019-05-02T17:30:55.473Z,100.00
2019-05-02T17:33:29.317Z,100.00
2019-05-02T17:36:02.313Z,100.00
2019-05-02T17:38:36.074Z,100.00
2019-05-02T17:41:11.723Z,100.00
2019-05-02T17:43:45.266Z,100.00
2019-05-02T17:46:19.945Z,100.00
2019-05-02T17:48:53.937Z,100.00
2019-05-02T17:51:49.309Z,100.00
2019-05-02T17:54:26.188Z,100.00
2019-05-02T17:56:59.163Z,100.00
2019-05-02T17:59:37.617Z,100.00
2019-05-02T18:02:12.397Z,100.00
2019-05-02T18:04:51.380Z,100.00
2019-05-02T18:07:28.944Z,100.00
2019-05-02T18:09:55.770Z,100.00
2019-05-02T18:12:29.527Z,100.00
2019-05-02T18:15:03.388Z,100.00
2019-05-02T18:17:37.582Z,100.00
2019-05-02T18:20:12.469Z,100.00
2019-05-02T18:22:48.974Z,100.00
2019-05-02T18:25:25.277Z,100.00
2019-05-02T18:27:57.416Z,100.00
2019-05-02T18:30:30.484Z,100.00
2019-05-02T18:33:07.291Z,100.00
2019-05-02T18:35:43.083Z,100.00
2019-05-02T18:38:22.424Z,100.00
2019-05-02T18:41:00.384Z,100.00
2019-05-02T18:43:36.019Z,100.00
2019-05-02T18:46:07.730Z,100.00
2019-05-02T18:48:46.122Z,100.00
2019-05-02T18:51:19.101Z,100.00
2019-05-02T18:53:53.084Z,100.00
2019-05-02T18:56:25.779Z,100.00
2019-05-02T18:58:59.341Z,100.00
2019-05-02T19:01:32.546Z,100.00
2019-05-02T19:04:05.123Z,100.00
2019-05-02T19:06:38.962Z,100.00
2019-05-02T19:09:17.436Z,100.00
2019-05-02T19:11:49.302Z,100.00
2019-05-02T19:14:26.027Z,100.00
2019-05-02T19:17:02.910Z,100.00
2019-05-02T19:19:36.787Z,100.00
2019-05-02T19:22:13.410Z,100.00
2019-05-02T19:24:42.844Z,100.00
2019-05-02T19:27:21.033Z,100.00
2019-05-02T19:29:54.877Z,100.00
2019-05-02T19:32:28.449Z,100.00
2019-05-02T19:35:03.279Z,100.00
2019-05-02T19:37:44.590Z,100.00
2019-05-02T19:40:20.095Z,100.00
2019-05-02T19:42:52.685Z,100.00
2019-05-02T19:45:26.724Z,100.00
2019-05-02T19:47:59.391Z,100.00
2019-05-02T19:50:41.724Z,100.00
2019-05-02T19:53:18.120Z,100.00
2019-05-02T19:55:49.075Z,100.00
2019-05-02T19:58:23.064Z,100.00
2019-05-02T20:00:56.057Z,100.00
2019-05-02T20:03:32.150Z,100.00
2019-05-02T20:06:06.426Z,100.00
2019-05-02T20:08:41.844Z,100.00
2019-05-02T20:11:15.001Z,100.00
2019-05-02T20:13:50.646Z,100.00
2019-05-02T20:16:49.375Z,100.00
2019-05-02T20:19:26.829Z,100.00
2019-05-02T20:22:11.974Z,100.00
2019-05-02T20:24:59.900Z,100.00
2019-05-02T20:27:32.799Z,100.00
2019-05-02T20:30:06.568Z,100.00
2019-05-02T20:32:39.749Z,100.00
2019-05-02T20:35:13.153Z,100.00
2019-05-02T20:37:45.817Z,100.00
2019-05-02T20:40:31.690Z,100.00
2019-05-02T20:43:05.569Z,100.00
2019-05-02T20:45:39.124Z,100.00
2019-05-02T20:48:12.232Z,100.00
2019-05-02T20:50:45.721Z,100.00
2019-05-02T20:53:30.764Z,100.00
2019-05-02T20:55:54.020Z,100.00
2019-05-02T20:58:26.752Z,100.00
2019-05-02T21:01:07.766Z,100.00
2019-05-02T21:03:34.849Z,100.00
2019-05-02T21:06:41.381Z,100.00
2019-05-02T21:09:32.426Z,100.00
2019-05-02T21:12:06.732Z,100.00
2019-05-02T21:14:41.601Z,100.00
2019-05-02T21:17:14.659Z,100.00
2019-05-02T21:19:48.588Z,100.00
2019-05-02T21:22:26.395Z,100.00
2019-05-02T21:24:59.509Z,100.00
2019-05-02T21:27:32.512Z,100.00
2019-05-02T21:30:07.524Z,100.00
2019-05-02T21:32:42.764Z,100.00
2019-05-02T21:35:16.150Z,100.00
2019-05-02T21:37:50.064Z,100.00
2019-05-02T21:40:25.556Z,100.00
2019-05-02T21:42:57.667Z,100.00
2019-05-02T21:45:31.716Z,100.00
2019-05-02T21:48:04.799Z,100.00
2019-05-02T21:50:44.341Z,100.00
2019-05-02T21:53:36.877Z,100.00
2019-05-02T21:56:21.855Z,100.00
2019-05-02T21:59:12.132Z,100.00
2019-05-02T22:01:49.146Z,100.00
2019-05-02T22:04:22.478Z,100.00
2019-05-02T22:06:56.084Z,100.00
2019-05-02T22:09:29.332Z,100.00
2019-05-02T22:12:03.295Z,100.00
2019-05-02T22:14:36.519Z,100.00
2019-05-02T22:17:10.092Z,100.00
2019-05-02T22:19:43.453Z,100.00
2019-05-02T22:22:16.913Z,100.00
2019-05-02T22:24:49.865Z,100.00
2019-05-02T22:27:22.860Z,100.00
2019-05-02T22:29:56.244Z,100.00
2019-05-02T22:32:29.595Z,100.00
2019-05-02T22:35:02.549Z,100.00
2019-05-02T22:37:37.983Z,100.00
2019-05-02T22:40:13.566Z,100.00
2019-05-02T22:42:47.145Z,100.00
2019-05-02T22:45:21.780Z,100.00
2019-05-02T22:47:54.987Z,100.00
2019-05-02T22:50:27.952Z,100.00
2019-05-02T22:53:00.519Z,100.00
2019-05-02T22:55:33.999Z,100.00
2019-05-02T22:58:07.019Z,100.00
2019-05-02T23:00:41.643Z,100.00
2019-05-02T23:03:14.887Z,100.00
2019-05-02T23:05:49.042Z,100.00
2019-05-02T23:08:22.545Z,100.00
2019-05-02T23:10:56.313Z,100.00
2019-05-02T23:13:31.896Z,100.00
2019-05-02T23:16:04.033Z,100.00
2019-05-02T23:18:37.494Z,100.00
2019-05-02T23:21:12.683Z,100.00
2019-05-02T23:23:46.072Z,100.00
2019-05-02T23:26:28.295Z,100.00
2019-05-02T23:29:02.347Z,100.00
2019-05-02T23:31:34.986Z,100.00
2019-05-02T23:34:07.978Z,100.00
2019-05-02T23:36:41.711Z,100.00
2019-05-02T23:39:14.457Z,100.00
2019-05-02T23:41:47.899Z,100.00
2019-05-02T23:44:22.693Z,100.00
2019-05-02T23:46:55.476Z,100.00
2019-05-02T23:49:28.868Z,100.00
2019-05-02T23:52:02.377Z,100.00
2019-05-02T23:54:35.043Z,100.00
2019-05-02T23:57:08.334Z,100.00
2019-05-02T23:59:42.448Z,100.00
